Time;durP1;ratioP1;P1;durP2;ratioP2;P2;SDS_P1;SDS_P2;PMS_P1;PMS_P2;Temp;Humidity;BMP_temperature;BMP_pressure;BME280_temperature;BME280_humidity;BME280_pressure;Samples;Min_cycle;Max_cycle;Signal;HPM_P1;HPM_P2
2022/08/29 00:01:21;;;;;;;9.02;2.70;;;16.10;99.90;;;;;;5044413;28;20053;-70
2022/08/29 00:03:47;;;;;;;8.43;2.85;;;16.10;99.90;;;;;;5042491;28;20480;-70
2022/08/29 00:06:12;;;;;;;8.20;2.35;;;16.00;99.90;;;;;;5034569;28;20052;-71
2022/08/29 00:08:38;;;;;;;8.82;2.97;;;16.00;99.90;;;;;;5032245;28;20041;-70
2022/08/29 00:11:05;;;;;;;6.05;2.50;;;16.00;99.90;;;;;;5043206;28;20056;-70
2022/08/29 00:13:31;;;;;;;6.45;2.85;;;16.00;99.90;;;;;;5038867;28;20549;-70
2022/08/29 00:15:57;;;;;;;8.68;2.78;;;16.00;99.90;;;;;;5038615;28;20054;-70
2022/08/29 00:18:23;;;;;;;8.98;2.60;;;16.10;99.90;;;;;;5022687;28;20041;-70
2022/08/29 00:20:49;;;;;;;6.57;2.70;;;16.00;99.90;;;;;;5038505;28;20048;-70
2022/08/29 00:23:16;;;;;;;7.20;2.67;;;16.00;99.90;;;;;;5040243;28;20057;-70
2022/08/29 00:25:41;;;;;;;7.30;3.10;;;16.00;99.90;;;;;;5039118;28;20048;-70
2022/08/29 00:28:08;;;;;;;8.15;2.60;;;16.00;99.90;;;;;;5021014;28;20045;-70
2022/08/29 00:30:35;;;;;;;9.48;3.08;;;16.00;99.90;;;;;;5042955;28;20052;-70
2022/08/29 00:33:01;;;;;;;8.82;2.47;;;16.00;99.90;;;;;;5040823;28;20053;-70
2022/08/29 00:35:32;;;;;;;6.03;2.50;;;16.00;99.90;;;;;;5042236;28;20068;-70
2022/08/29 00:37:58;;;;;;;7.07;2.33;;;16.00;99.90;;;;;;5022443;28;20126;-70
2022/08/29 00:40:31;;;;;;;6.53;2.75;;;16.00;99.90;;;;;;5041558;28;20049;-70
2022/08/29 00:42:58;;;;;;;7.78;2.35;;;16.00;99.90;;;;;;5023932;28;20042;-71
2022/08/29 00:45:23;;;;;;;5.90;1.98;;;16.10;99.90;;;;;;5043153;28;20059;-71
2022/08/29 00:48:11;;;;;;;7.53;2.35;;;16.10;99.90;;;;;;5020345;28;20033;-71
2022/08/29 00:50:49;;;;;;;5.80;1.95;;;16.10;99.90;;;;;;5043309;28;20076;-70
2022/08/29 00:53:21;;;;;;;5.30;1.48;;;16.20;99.90;;;;;;5043564;28;20045;-71
2022/08/29 00:55:48;;;;;;;6.88;2.30;;;16.20;99.90;;;;;;5035846;28;20042;-72
2022/08/29 00:58:21;;;;;;;5.63;1.80;;;16.20;99.90;;;;;;5022644;28;20448;-71
2022/08/29 01:00:48;;;;;;;6.55;1.65;;;16.20;99.90;;;;;;5040141;28;20045;-71
2022/08/29 01:03:14;;;;;;;7.15;1.77;;;16.30;99.90;;;;;;5044150;28;20071;-70
2022/08/29 01:05:41;;;;;;;8.85;2.13;;;16.30;99.90;;;;;;5043236;28;20045;-70
2022/08/29 01:08:08;;;;;;;6.45;1.70;;;16.30;99.90;;;;;;5019653;28;20037;-71
2022/08/29 01:13:24;;;;;;;5.68;1.63;;;16.30;99.90;;;;;;5043950;28;20092;-71
2022/08/29 01:15:50;;;;;;;;;;;16.30;99.90;;;;;;5047960;28;20040;-70
2022/08/29 01:18:18;;;;;;;5.90;1.75;;;16.30;99.90;;;;;;5027671;28;19932;-71
2022/08/29 01:20:52;;;;;;;3.40;1.40;;;16.30;99.90;;;;;;5046069;28;20052;-71
2022/08/29 01:23:29;;;;;;;5.22;1.50;;;16.30;99.90;;;;;;5041718;28;20080;-70
2022/08/29 01:25:56;;;;;;;6.57;1.80;;;16.40;99.90;;;;;;5044225;28;20049;-71
2022/08/29 01:28:26;;;;;;;5.63;1.40;;;16.20;99.90;;;;;;5026415;28;20477;-70
2022/08/29 01:31:11;;;;;;;5.68;1.55;;;16.40;99.90;;;;;;5045113;28;20114;-70
2022/08/29 01:33:47;;;;;;;5.75;1.60;;;16.40;99.90;;;;;;5043646;28;20700;-70
2022/08/29 01:36:17;;;;;;;6.45;1.85;;;16.40;99.90;;;;;;5033638;28;20172;-71
2022/08/29 01:38:43;;;;;;;10.48;2.20;;;16.40;99.90;;;;;;5040185;28;20049;-70
2022/08/29 01:41:09;;;;;;;5.13;1.80;;;16.40;99.90;;;;;;5046023;28;20511;-69
2022/08/29 01:43:48;;;;;;;11.52;2.17;;;16.40;99.90;;;;;;5043348;28;20114;-70
2022/08/29 01:46:19;;;;;;;8.18;1.80;;;16.40;99.90;;;;;;5032665;28;20467;-71
2022/08/29 01:48:45;;;;;;;7.00;1.67;;;16.40;99.90;;;;;;5037551;28;20377;-71
2022/08/29 01:51:12;;;;;;;5.55;1.80;;;16.40;99.90;;;;;;5042008;28;20316;-71
2022/08/29 01:53:39;;;;;;;8.77;2.00;;;16.40;99.90;;;;;;5044976;28;20071;-71
2022/08/29 01:56:17;;;;;;;7.22;1.95;;;16.40;99.90;;;;;;5040091;28;20141;-70
2022/08/29 01:58:44;;;;;;;9.18;1.88;;;16.40;99.90;;;;;;5031159;28;20133;-70
2022/08/29 02:01:11;;;;;;;5.93;1.55;;;16.40;99.90;;;;;;5043312;28;20053;-70
2022/08/29 02:03:37;;;;;;;5.68;1.45;;;16.40;99.90;;;;;;5046696;28;20045;-71
2022/08/29 02:06:03;;;;;;;7.10;1.77;;;16.40;99.90;;;;;;5040450;28;20068;-71
2022/08/29 02:08:29;;;;;;;6.00;1.90;;;16.40;99.90;;;;;;5022746;28;20045;-72
2022/08/29 02:10:57;;;;;;;5.80;1.70;;;16.40;99.90;;;;;;5043254;28;20041;-71
2022/08/29 02:13:23;;;;;;;9.18;1.70;;;16.40;99.90;;;;;;5046112;28;20060;-71
2022/08/29 02:15:50;;;;;;;7.60;2.15;;;16.40;99.90;;;;;;5043709;28;20555;-71
2022/08/29 02:18:17;;;;;;;7.72;1.70;;;16.40;99.90;;;;;;5030602;28;20496;-70
2022/08/29 02:20:43;;;;;;;8.75;2.38;;;16.40;99.90;;;;;;5043069;28;20424;-71
2022/08/29 02:23:10;;;;;;;6.25;1.75;;;16.40;99.90;;;;;;5044435;28;20057;-71
2022/08/29 02:25:41;;;;;;;9.50;2.13;;;16.40;99.90;;;;;;5043070;28;20045;-70
2022/08/29 02:28:12;;;;;;;4.72;1.33;;;16.40;99.90;;;;;;5022625;28;20046;-71
2022/08/29 02:30:42;;;;;;;9.10;1.90;;;16.40;99.90;;;;;;5042673;28;20103;-70
2022/08/29 02:33:08;;;;;;;7.17;1.63;;;16.40;99.90;;;;;;5040354;28;20582;-69
2022/08/29 02:35:35;;;;;;;6.32;1.83;;;16.40;99.90;;;;;;5044223;28;20797;-70
2022/08/29 02:38:01;;;;;;;8.70;1.80;;;16.40;99.90;;;;;;5031084;28;20045;-71
2022/08/29 02:40:27;;;;;;;6.95;2.13;;;16.50;99.90;;;;;;5041455;28;20048;-70
2022/08/29 02:42:54;;;;;;;5.10;1.83;;;16.50;99.90;;;;;;5026785;28;20515;-71
2022/08/29 02:45:21;;;;;;;7.35;2.13;;;16.40;99.90;;;;;;5043775;28;20135;-70
2022/08/29 02:47:47;;;;;;;8.25;2.08;;;16.40;99.90;;;;;;5022262;28;20045;-70
2022/08/29 02:50:13;;;;;;;8.00;1.70;;;16.40;99.90;;;;;;5038868;28;20052;-71
2022/08/29 02:52:40;;;;;;;5.97;1.90;;;16.40;99.90;;;;;;5040626;28;20124;-72
2022/08/29 02:55:09;;;;;;;7.68;1.85;;;16.40;99.90;;;;;;5043658;28;20097;-71
2022/08/29 02:57:34;;;;;;;5.75;1.98;;;16.40;99.90;;;;;;5006903;28;20551;-70
2022/08/29 03:00:00;;;;;;;6.20;1.58;;;16.40;99.90;;;;;;5041238;28;20175;-71
2022/08/29 03:02:26;;;;;;;6.57;1.60;;;16.40;99.90;;;;;;5044320;28;20126;-72
2022/08/29 03:04:52;;;;;;;6.60;1.58;;;16.40;99.90;;;;;;5039872;28;20044;-71
2022/08/29 03:07:18;;;;;;;7.35;1.77;;;16.40;99.90;;;;;;5025545;28;20439;-71
2022/08/29 03:09:44;;;;;;;5.72;1.77;;;16.40;99.90;;;;;;5043477;28;20040;-71
2022/08/29 03:12:09;;;;;;;7.20;1.77;;;16.40;99.90;;;;;;5025190;28;20409;-70
2022/08/29 03:14:36;;;;;;;9.48;1.65;;;16.40;99.90;;;;;;5039922;28;20385;-71
2022/08/29 03:17:02;;;;;;;6.25;1.73;;;16.40;99.90;;;;;;5024746;28;20512;-71
2022/08/29 03:19:27;;;;;;;6.68;1.77;;;16.40;99.90;;;;;;5043738;28;20044;-71
2022/08/29 03:21:54;;;;;;;7.90;2.00;;;16.40;99.90;;;;;;5045903;28;20615;-71
2022/08/29 03:24:19;;;;;;;9.57;1.98;;;16.40;99.90;;;;;;5045122;28;20420;-71
2022/08/29 03:26:45;;;;;;;6.45;1.65;;;16.40;99.90;;;;;;5031186;28;20051;-72
2022/08/29 03:29:11;;;;;;;6.53;1.85;;;16.40;99.90;;;;;;5039154;28;20489;-71
2022/08/29 03:31:36;;;;;;;5.72;1.63;;;16.40;99.90;;;;;;5041100;28;20048;-70
2022/08/29 03:34:03;;;;;;;5.50;1.50;;;16.30;99.90;;;;;;5041502;28;20044;-71
2022/08/29 03:36:30;;;;;;;7.90;1.52;;;16.40;99.90;;;;;;5027501;28;20588;-71
2022/08/29 03:38:56;;;;;;;9.35;2.22;;;16.30;99.90;;;;;;5037036;28;20088;-72
2022/08/29 03:41:24;;;;;;;5.68;1.45;;;16.30;99.90;;;;;;5041945;28;20523;-71
2022/08/29 03:43:50;;;;;;;6.60;1.90;;;16.30;99.90;;;;;;5042516;28;20072;-71
2022/08/29 03:46:16;;;;;;;7.72;1.85;;;16.40;99.90;;;;;;5033648;28;20049;-73
2022/08/29 03:48:42;;;;;;;8.38;1.58;;;16.40;99.90;;;;;;5038372;28;20056;-71
2022/08/29 03:51:08;;;;;;;10.25;2.03;;;16.30;99.90;;;;;;5041036;28;20048;-72
2022/08/29 03:53:34;;;;;;;7.43;1.75;;;16.30;99.90;;;;;;5039443;28;20052;-71
2022/08/29 03:56:00;;;;;;;5.75;1.92;;;16.30;99.90;;;;;;5040710;28;20044;-71
2022/08/29 03:58:25;;;;;;;12.05;2.00;;;16.30;99.90;;;;;;5027271;28;20044;-72
2022/08/29 04:00:51;;;;;;;5.88;1.85;;;16.30;99.90;;;;;;5038788;28;20056;-71
2022/08/29 04:03:18;;;;;;;7.55;2.13;;;16.30;99.90;;;;;;5041282;28;20049;-71
2022/08/29 04:05:44;;;;;;;7.47;1.88;;;16.30;99.90;;;;;;5042049;28;20529;-71
2022/08/29 04:08:10;;;;;;;6.97;1.88;;;16.30;99.90;;;;;;5025457;28;20049;-71
2022/08/29 04:10:37;;;;;;;9.25;1.75;;;16.30;99.90;;;;;;5039101;28;20055;-71
2022/08/29 04:13:04;;;;;;;8.60;1.80;;;16.30;99.90;;;;;;5039263;28;20086;-71
2022/08/29 04:15:31;;;;;;;6.65;1.50;;;16.30;99.90;;;;;;5037480;28;20053;-71
2022/08/29 04:17:59;;;;;;;6.35;1.80;;;16.30;99.90;;;;;;5026242;28;20092;-71
2022/08/29 04:20:28;;;;;;;7.32;2.00;;;16.20;99.90;;;;;;5040734;28;20115;-71
2022/08/29 04:22:56;;;;;;;6.38;1.80;;;16.20;99.90;;;;;;5041438;28;20496;-71
2022/08/29 04:25:23;;;;;;;7.88;2.00;;;16.20;99.90;;;;;;5042537;28;20047;-71
2022/08/29 04:27:49;;;;;;;6.47;1.70;;;16.20;99.90;;;;;;5026751;28;20033;-70
2022/08/29 04:30:19;;;;;;;7.60;2.10;;;16.20;99.90;;;;;;5041994;28;20048;-71
2022/08/29 04:32:46;;;;;;;9.57;1.60;;;16.20;99.90;;;;;;5037885;28;20072;-71
2022/08/29 04:35:12;;;;;;;8.60;2.28;;;16.30;99.90;;;;;;5039476;28;20053;-71
2022/08/29 04:37:39;;;;;;;7.35;1.85;;;16.20;99.90;;;;;;5023843;28;20057;-71
2022/08/29 04:40:08;;;;;;;7.55;1.80;;;16.30;99.90;;;;;;5038694;28;20080;-71
2022/08/29 04:42:38;;;;;;;9.50;2.10;;;16.30;99.90;;;;;;5041172;28;20037;-71
2022/08/29 04:45:06;;;;;;;6.93;1.95;;;16.30;99.90;;;;;;5042386;28;20091;-71
2022/08/29 04:47:34;;;;;;;10.20;1.88;;;16.30;99.90;;;;;;5023456;28;20055;-70
2022/08/29 04:50:00;;;;;;;13.43;2.40;;;16.20;99.90;;;;;;5043589;28;20061;-71
2022/08/29 04:52:27;;;;;;;9.70;2.35;;;16.30;99.90;;;;;;5040245;28;20047;-71
2022/08/29 04:54:53;;;;;;;5.68;1.88;;;16.30;99.90;;;;;;5042704;28;20052;-71
2022/08/29 04:57:20;;;;;;;8.40;1.80;;;16.30;99.90;;;;;;5024727;28;20041;-71
2022/08/29 04:59:46;;;;;;;7.40;2.00;;;16.30;99.90;;;;;;5040143;28;20051;-71
2022/08/29 05:02:12;;;;;;;6.85;1.63;;;16.30;99.90;;;;;;5039729;28;20044;-71
2022/08/29 05:04:37;;;;;;;5.25;1.70;;;16.30;99.90;;;;;;5040162;28;20477;-71
2022/08/29 05:07:03;;;;;;;7.50;1.88;;;16.30;99.90;;;;;;5025898;28;20044;-71
2022/08/29 05:09:29;;;;;;;6.95;1.63;;;16.30;99.90;;;;;;5040772;28;20609;-71
2022/08/29 05:11:54;;;;;;;8.52;1.60;;;16.40;99.90;;;;;;5039362;28;20488;-72
2022/08/29 05:14:20;;;;;;;9.50;1.73;;;16.30;99.90;;;;;;5038829;28;20045;-72
2022/08/29 05:16:47;;;;;;;6.70;1.80;;;16.40;99.90;;;;;;5024953;28;20041;-72
2022/08/29 05:19:12;;;;;;;10.73;1.98;;;16.40;99.90;;;;;;5037867;28;20041;-71
2022/08/29 05:21:39;;;;;;;5.30;1.50;;;16.40;99.90;;;;;;5041227;28;20045;-71
2022/08/29 05:24:11;;;;;;;7.93;2.00;;;16.40;99.90;;;;;;5034491;28;20195;-72
2022/08/29 05:26:43;;;;;;;7.13;1.80;;;16.40;99.90;;;;;;5024212;28;20271;-72
2022/08/29 05:29:11;;;;;;;5.63;1.80;;;16.40;99.90;;;;;;5035439;28;20053;-71
2022/08/29 05:31:39;;;;;;;5.95;1.70;;;16.50;99.90;;;;;;5038427;28;20064;-72
2022/08/29 05:34:06;;;;;;;6.15;1.98;;;16.50;99.90;;;;;;5040269;28;20279;-72
2022/08/29 05:36:32;;;;;;;8.25;1.90;;;16.50;99.90;;;;;;5028576;28;20464;-72
2022/08/29 05:38:59;;;;;;;6.20;1.60;;;16.50;99.90;;;;;;5000083;28;20046;-71
2022/08/29 05:41:25;;;;;;;3.85;1.60;;;16.50;99.90;;;;;;5027857;28;20669;-72
2022/08/29 05:43:53;;;;;;;6.03;1.73;;;16.50;99.90;;;;;;5019277;28;20053;-73
2022/08/29 05:46:19;;;;;;;4.75;1.60;;;16.50;99.90;;;;;;5010733;28;20096;-74
2022/08/29 05:48:45;;;;;;;4.05;1.42;;;16.50;99.90;;;;;;5017574;28;20052;-73
2022/08/29 05:51:16;;;;;;;5.63;1.50;;;16.60;99.90;;;;;;5003042;28;20500;-73
2022/08/29 05:53:41;;;;;;;5.45;1.67;;;16.60;99.90;;;;;;5021530;28;20145;-73
2022/08/29 05:56:07;;;;;;;5.53;1.60;;;16.60;99.90;;;;;;5019680;28;20055;-73
2022/08/29 05:58:33;;;;;;;6.05;1.67;;;16.60;99.90;;;;;;5016781;28;20053;-73
2022/08/29 06:00:58;;;;;;;4.38;1.55;;;16.60;99.90;;;;;;5024765;28;20052;-73
2022/08/29 06:03:24;;;;;;;6.07;2.03;;;16.70;99.90;;;;;;5008305;28;20305;-73
2022/08/29 06:05:51;;;;;;;6.90;2.13;;;16.70;99.90;;;;;;5026759;28;20515;-73
2022/08/29 06:08:18;;;;;;;9.43;2.10;;;16.70;99.90;;;;;;5010984;28;20057;-74
2022/08/29 06:10:44;;;;;;;7.25;2.22;;;16.80;99.90;;;;;;5010175;28;20048;-73
2022/08/29 06:13:10;;;;;;;7.78;2.25;;;16.90;99.90;;;;;;5016903;28;20736;-74
2022/08/29 06:15:36;;;;;;;5.22;2.15;;;17.00;99.90;;;;;;5019149;28;20581;-74
2022/08/29 06:18:03;;;;;;;9.93;2.20;;;17.00;99.90;;;;;;4985363;28;20045;-73
2022/08/29 06:20:28;;;;;;;9.55;2.20;;;17.00;99.90;;;;;;5020576;28;20053;-73
2022/08/29 06:22:54;;;;;;;6.30;2.25;;;17.00;99.90;;;;;;5020185;28;20049;-72
2022/08/29 06:25:20;;;;;;;7.20;2.40;;;17.10;99.90;;;;;;5019812;28;20055;-72
2022/08/29 06:27:46;;;;;;;11.10;2.60;;;17.20;99.90;;;;;;5006560;28;20400;-73
2022/08/29 06:30:11;;;;;;;10.73;2.35;;;17.20;99.90;;;;;;5016136;28;20106;-74
2022/08/29 06:32:38;;;;;;;8.60;2.60;;;17.30;99.90;;;;;;5016103;28;20053;-72
2022/08/29 06:35:04;;;;;;;14.32;2.47;;;17.30;99.90;;;;;;5015193;28;20049;-73
2022/08/29 06:37:30;;;;;;;8.85;2.30;;;17.40;99.90;;;;;;5004431;28;20562;-73
2022/08/29 06:39:56;;;;;;;9.35;2.45;;;17.50;99.90;;;;;;5017347;28;20045;-72
2022/08/29 06:42:24;;;;;;;8.45;2.58;;;17.60;99.90;;;;;;4998790;28;20059;-72
2022/08/29 06:44:51;;;;;;;9.55;3.13;;;17.70;99.90;;;;;;5020208;28;20053;-73
2022/08/29 06:47:16;;;;;;;9.75;2.72;;;17.70;99.90;;;;;;4999178;28;20053;-73
2022/08/29 06:49:42;;;;;;;9.98;3.10;;;17.70;99.90;;;;;;5017412;28;20041;-73
2022/08/29 06:52:08;;;;;;;13.48;3.63;;;17.90;99.90;;;;;;5016604;28;20589;-74
2022/08/29 06:54:34;;;;;;;14.70;2.88;;;17.80;99.90;;;;;;5019010;28;20128;-73
2022/08/29 06:57:00;;;;;;;9.98;3.22;;;17.90;99.90;;;;;;5003099;28;20052;-74
2022/08/29 06:59:26;;;;;;;14.15;3.25;;;18.00;99.90;;;;;;4991263;28;20056;-74
2022/08/29 07:01:53;;;;;;;12.77;3.08;;;18.10;99.90;;;;;;5016002;28;20081;-73
2022/08/29 07:04:19;;;;;;;11.77;3.42;;;18.10;99.90;;;;;;4985630;28;20543;-74
2022/08/29 07:06:45;;;;;;;10.68;3.17;;;18.10;99.90;;;;;;5002164;28;20051;-73
2022/08/29 07:09:11;;;;;;;11.35;2.65;;;18.10;99.90;;;;;;5015270;28;20045;-73
2022/08/29 07:11:39;;;;;;;14.73;3.33;;;18.10;99.90;;;;;;5016009;28;20080;-74
2022/08/29 07:14:06;;;;;;;13.02;3.00;;;18.10;99.90;;;;;;5018976;28;20049;-74
2022/08/29 07:16:33;;;;;;;14.90;3.10;;;18.10;99.90;;;;;;4986794;28;20450;-72
2022/08/29 07:19:00;;;;;;;10.10;2.97;;;18.00;99.90;;;;;;5018919;28;20049;-71
2022/08/29 07:21:26;;;;;;;11.85;3.30;;;18.10;99.90;;;;;;5015965;28;20722;-72
2022/08/29 07:23:54;;;;;;;9.35;2.83;;;18.10;99.90;;;;;;5017890;28;20060;-73
2022/08/29 07:26:32;;;;;;;15.52;2.92;;;18.10;99.90;;;;;;5006112;28;20449;-74
2022/08/29 07:29:02;;;;;;;14.77;3.08;;;18.10;99.90;;;;;;5014890;28;20512;-73
2022/08/29 07:31:28;;;;;;;11.88;2.72;;;18.20;99.90;;;;;;5015479;28;20053;-74
2022/08/29 07:33:53;;;;;;;12.35;2.95;;;18.30;99.90;;;;;;5019217;28;20068;-74
2022/08/29 07:36:19;;;;;;;10.55;3.05;;;18.30;99.90;;;;;;5008599;28;20041;-73
2022/08/29 07:38:45;;;;;;;12.90;3.30;;;18.30;99.90;;;;;;5011711;28;20060;-74
2022/08/29 07:41:13;;;;;;;11.40;3.13;;;18.30;99.90;;;;;;5014285;28;20049;-73
2022/08/29 07:43:39;;;;;;;11.77;3.13;;;18.50;99.90;;;;;;5017022;28;20423;-73
2022/08/29 07:46:10;;;;;;;13.07;3.05;;;18.40;99.90;;;;;;5014918;28;20059;-74
2022/08/29 07:48:36;;;;;;;15.82;3.17;;;18.50;99.90;;;;;;5010354;28;20438;-73
2022/08/29 07:51:13;;;;;;;14.60;2.97;;;18.50;99.90;;;;;;5016255;28;20509;-74
2022/08/29 07:53:40;;;;;;;13.35;3.30;;;18.50;99.90;;;;;;5018475;28;20064;-72
2022/08/29 07:56:08;;;;;;;13.30;2.95;;;18.50;99.90;;;;;;5039924;28;20643;-75
2022/08/29 07:58:35;;;;;;;10.82;2.70;;;18.50;99.90;;;;;;5034524;28;20120;-72
2022/08/29 08:01:02;;;;;;;10.05;3.17;;;18.50;99.90;;;;;;5041982;28;20045;-72
2022/08/29 08:03:29;;;;;;;14.00;3.28;;;18.50;99.90;;;;;;5043373;28;20041;-73
2022/08/29 08:05:54;;;;;;;13.50;2.97;;;18.50;99.90;;;;;;5042857;28;20504;-73
2022/08/29 08:08:20;;;;;;;10.07;2.80;;;18.50;99.90;;;;;;5028243;28;20180;-73
2022/08/29 08:10:46;;;;;;;8.18;3.00;;;18.60;99.90;;;;;;5041773;28;20139;-72
2022/08/29 08:13:12;;;;;;;8.65;2.60;;;18.60;99.90;;;;;;5040581;28;20124;-73
2022/08/29 08:15:38;;;;;;;11.85;3.13;;;18.60;99.90;;;;;;5038279;28;20471;-72
2022/08/29 08:18:04;;;;;;;10.82;3.13;;;18.60;99.90;;;;;;5024243;28;20095;-72
2022/08/29 08:20:30;;;;;;;12.57;3.08;;;18.50;99.90;;;;;;5037214;28;20389;-72
2022/08/29 08:22:56;;;;;;;16.35;3.63;;;18.50;99.90;;;;;;5038605;28;20041;-72
2022/08/29 08:25:23;;;;;;;12.85;3.40;;;18.40;99.90;;;;;;5040074;28;20439;-72
2022/08/29 08:27:49;;;;;;;10.05;2.67;;;18.40;99.90;;;;;;5025473;28;20057;-71
2022/08/29 08:30:15;;;;;;;9.43;2.85;;;18.40;99.90;;;;;;5038627;28;20099;-72
2022/08/29 08:32:41;;;;;;;10.52;3.45;;;18.40;99.90;;;;;;5034143;28;20037;-72
2022/08/29 08:35:07;;;;;;;11.38;3.22;;;18.40;99.90;;;;;;5038325;28;20044;-72
2022/08/29 08:37:33;;;;;;;7.80;3.15;;;18.40;99.90;;;;;;5023955;28;20040;-71
2022/08/29 08:39:59;;;;;;;12.27;3.15;;;18.40;99.90;;;;;;5018755;28;20071;-71
2022/08/29 08:42:42;;;;;;;13.63;3.10;;;18.30;99.90;;;;;;5040450;28;20041;-71
2022/08/29 08:45:13;;;;;;;8.73;2.83;;;18.30;99.90;;;;;;5038766;28;20143;-72
2022/08/29 08:47:41;;;;;;;;;;;18.30;99.90;;;;;;5023266;28;20049;-70
2022/08/29 08:50:32;;;;;;;17.40;4.22;;;18.30;99.90;;;;;;5037618;28;19925;-72
2022/08/29 08:53:20;;;;;;;11.13;3.38;;;18.30;99.90;;;;;;5035489;28;20072;-71
2022/08/29 08:55:53;;;;;;;13.57;3.65;;;18.50;99.90;;;;;;5037397;28;20053;-72
2022/08/29 08:58:31;;;;;;;15.98;3.53;;;18.70;99.90;;;;;;5020932;28;20726;-73
2022/08/29 09:01:19;;;;;;;15.38;3.75;;;18.80;99.90;;;;;;5036931;28;20046;-72
2022/08/29 09:03:57;;;;;;;11.57;3.80;;;18.80;99.90;;;;;;5037825;28;20073;-71
2022/08/29 09:06:54;;;;;;;11.32;3.40;;;18.80;99.90;;;;;;5027011;28;20061;-72
2022/08/29 09:09:40;;;;;;;8.75;3.05;;;19.00;99.90;;;;;;4993935;28;20056;-72
2022/08/29 09:12:24;;;;;;;12.95;3.60;;;19.00;99.90;;;;;;5032873;28;20057;-72
2022/08/29 09:15:11;;;;;;;13.55;3.55;;;19.10;99.90;;;;;;5038160;28;20099;-71
2022/08/29 09:18:06;;;;;;;8.65;2.97;;;19.20;99.90;;;;;;5018865;28;20045;-71
2022/08/29 09:20:35;;;;;;;8.75;3.05;;;19.20;99.90;;;;;;5040026;28;20045;-72
2022/08/29 09:23:19;;;;;;;11.05;3.05;;;19.30;99.90;;;;;;5041428;28;20056;-72
2022/08/29 09:25:46;;;;;;;15.85;3.92;;;19.30;99.90;;;;;;5036896;28;20499;-72
2022/08/29 09:28:11;;;;;;;11.40;3.20;;;19.40;99.90;;;;;;5019699;28;20040;-71
2022/08/29 09:30:40;;;;;;;8.38;3.28;;;19.40;99.90;;;;;;5037901;28;20056;-72
2022/08/29 09:33:13;;;;;;;10.98;3.40;;;19.50;99.90;;;;;;5040846;28;20045;-72
2022/08/29 09:35:42;;;;;;;9.55;2.97;;;19.60;99.90;;;;;;5042239;28;20055;-72
2022/08/29 09:38:28;;;;;;;13.00;3.30;;;19.60;99.90;;;;;;5025057;28;20508;-72
2022/08/29 09:41:02;;;;;;;12.30;3.30;;;19.70;99.90;;;;;;5041794;28;20053;-71
2022/08/29 09:43:37;;;;;;;11.05;3.42;;;19.70;99.90;;;;;;5042314;28;20064;-71
2022/08/29 09:46:16;;;;;;;13.68;3.42;;;19.70;99.90;;;;;;5043046;28;20056;-72
2022/08/29 09:48:48;;;;;;;9.90;3.20;;;19.90;99.90;;;;;;5037914;28;20037;-71
2022/08/29 09:51:37;;;;;;;9.55;3.13;;;20.00;99.90;;;;;;5038427;28;20034;-72
2022/08/29 09:54:26;;;;;;;9.10;3.00;;;20.00;99.90;;;;;;5041452;28;20088;-72
2022/08/29 09:56:58;;;;;;;9.27;3.00;;;19.90;99.90;;;;;;5028524;28;20040;-72
2022/08/29 09:59:34;;;;;;;10.07;3.10;;;19.90;99.90;;;;;;5039603;28;20080;-72
2022/08/29 10:02:24;;;;;;;10.38;3.15;;;20.00;99.90;;;;;;5040220;28;20044;-72
2022/08/29 10:04:52;;;;;;;9.98;2.97;;;20.10;99.90;;;;;;5044170;28;20049;-72
2022/08/29 10:07:22;;;;;;;11.18;3.08;;;20.10;99.90;;;;;;5023149;28;20033;-72
2022/08/29 10:10:04;;;;;;;12.57;3.53;;;20.00;99.90;;;;;;5041912;28;20102;-72
2022/08/29 10:12:50;;;;;;;9.32;3.22;;;20.10;99.90;;;;;;5041827;28;20048;-73
2022/08/29 10:15:23;;;;;;;10.88;2.70;;;20.10;99.90;;;;;;5040693;28;20041;-72
2022/08/29 10:21:11;;;;;;;14.52;3.72;;;20.10;99.90;;;;;;5042332;28;20527;-72
2022/08/29 10:24:00;;;;;;;9.38;3.00;;;20.00;99.90;;;;;;5021304;28;20481;-72
2022/08/29 10:26:36;;;;;;;11.00;3.20;;;20.00;99.90;;;;;;5044733;28;20399;-72
2022/08/29 10:29:04;;;;;;;13.68;3.10;;;20.00;99.90;;;;;;5017231;28;20196;-72
2022/08/29 10:31:40;;;;;;;8.77;3.00;;;20.10;99.90;;;;;;5039687;28;20190;-72
2022/08/29 10:34:33;;;;;;;9.18;3.00;;;20.10;99.90;;;;;;5038444;28;20045;-71
2022/08/29 10:37:22;;;;;;;12.27;3.35;;;20.10;99.90;;;;;;5026298;28;20456;-72
2022/08/29 10:40:08;;;;;;;12.40;3.03;;;20.10;99.90;;;;;;5038936;28;20365;-72
2022/08/29 10:42:38;;;;;;;8.02;3.00;;;20.20;99.90;;;;;;5039087;28;20509;-71
2022/08/29 10:45:17;;;;;;;10.38;3.35;;;20.30;99.90;;;;;;5043034;28;20457;-72
2022/08/29 10:48:12;;;;;;;11.27;3.08;;;20.40;99.90;;;;;;5025267;28;20128;-70
2022/08/29 10:51:13;;;;;;;10.70;2.95;;;20.40;99.90;;;;;;5038205;28;20492;-72
2022/08/29 10:53:42;;;;;;;9.55;2.90;;;20.40;99.90;;;;;;5021914;28;20083;-72
2022/08/29 10:56:42;;;;;;;10.18;2.83;;;20.20;99.90;;;;;;5034223;28;20104;-73
2022/08/29 10:59:11;;;;;;;10.98;3.05;;;20.40;99.90;;;;;;5027255;28;20059;-73
2022/08/29 11:01:50;;;;;;;14.70;3.10;;;20.40;99.90;;;;;;5038281;28;20258;-72
2022/08/29 11:04:48;;;;;;;9.52;3.03;;;20.30;99.90;;;;;;5035832;28;20044;-72
2022/08/29 11:07:27;;;;;;;7.78;2.78;;;20.40;99.90;;;;;;5023924;28;20094;-73
2022/08/29 11:10:02;;;;;;;11.20;2.83;;;20.50;99.90;;;;;;5041427;28;20048;-72
2022/08/29 11:12:48;;;;;;;17.30;3.05;;;20.60;99.90;;;;;;5040844;28;20567;-72
2022/08/29 11:15:25;;;;;;;11.07;3.08;;;20.70;99.90;;;;;;5039316;28;20045;-72
2022/08/29 11:18:26;;;;;;;11.77;2.90;;;20.80;99.90;;;;;;5023489;28;20056;-72
2022/08/29 11:20:59;;;;;;;8.40;3.00;;;20.70;99.90;;;;;;5041423;28;20128;-71
2022/08/29 11:23:43;;;;;;;10.80;3.08;;;20.60;99.90;;;;;;5036920;28;20246;-71
2022/08/29 11:26:18;;;;;;;10.77;2.65;;;20.70;99.90;;;;;;5035131;28;20064;-72
2022/08/29 11:29:02;;;;;;;11.85;3.10;;;20.80;99.90;;;;;;5033954;28;20419;-72
2022/08/29 11:31:34;;;;;;;19.77;2.85;;;20.90;99.90;;;;;;5043300;28;20052;-72
2022/08/29 11:34:19;;;;;;;9.15;2.80;;;20.90;99.90;;;;;;5038538;28;20492;-72
2022/08/29 11:36:44;;;;;;;9.07;2.92;;;21.00;99.90;;;;;;5022442;28;20496;-72
2022/08/29 11:39:28;;;;;;;11.25;3.10;;;20.80;99.90;;;;;;5039445;28;20575;-72
2022/08/29 11:41:57;;;;;;;11.65;2.72;;;20.80;99.90;;;;;;5042137;28;20041;-72
2022/08/29 11:44:23;;;;;;;8.93;2.90;;;20.80;99.90;;;;;;5039894;28;20505;-73
2022/08/29 11:46:50;;;;;;;8.38;2.88;;;20.80;99.90;;;;;;5025036;28;20053;-72
2022/08/29 11:49:25;;;;;;;8.10;3.10;;;20.80;99.90;;;;;;5039019;28;20076;-72
2022/08/29 11:51:57;;;;;;;8.98;2.50;;;20.60;99.90;;;;;;5041565;28;20077;-72
2022/08/29 11:54:22;;;;;;;7.82;2.72;;;20.60;99.90;;;;;;5040519;28;20068;-71
2022/08/29 11:57:01;;;;;;;9.52;2.70;;;20.60;99.90;;;;;;5025210;28;20044;-72
2022/08/29 11:59:45;;;;;;;11.38;3.08;;;20.50;99.90;;;;;;5036073;28;20044;-71
2022/08/29 12:02:39;;;;;;;8.25;2.72;;;20.60;99.90;;;;;;5039324;28;20049;-72
2022/08/29 12:05:19;;;;;;;7.22;2.65;;;20.60;99.90;;;;;;5036562;28;20119;-72
2022/08/29 12:07:56;;;;;;;9.23;2.85;;;20.70;99.90;;;;;;5021669;28;20093;-72
2022/08/29 12:10:31;;;;;;;12.38;2.85;;;20.60;99.90;;;;;;5038018;28;20132;-72
2022/08/29 12:13:03;;;;;;;7.80;2.58;;;20.70;99.90;;;;;;5036963;28;20049;-72
2022/08/29 12:15:31;;;;;;;7.93;2.40;;;20.70;99.90;;;;;;5040118;28;20056;-71
2022/08/29 12:18:00;;;;;;;8.75;2.40;;;20.70;99.90;;;;;;5023903;28;20118;-71
2022/08/29 12:20:29;;;;;;;11.65;3.20;;;20.70;99.90;;;;;;5038048;28;20065;-72
2022/08/29 12:23:00;;;;;;;7.60;2.30;;;20.70;99.90;;;;;;5039958;28;20040;-72
2022/08/29 12:25:53;;;;;;;6.72;2.30;;;20.70;99.90;;;;;;5038279;28;20088;-71
2022/08/29 12:28:26;;;;;;;9.00;2.58;;;20.60;99.90;;;;;;5006388;28;20147;-71
2022/08/29 12:30:58;;;;;;;7.85;2.20;;;20.60;99.90;;;;;;5037773;28;20124;-71
2022/08/29 12:34:01;;;;;;;9.75;2.47;;;20.50;99.90;;;;;;5037193;28;20059;-71
2022/08/29 12:36:50;;;;;;;11.18;2.20;;;20.50;99.90;;;;;;5028472;28;20527;-71
2022/08/29 12:39:37;;;;;;;8.48;2.47;;;20.50;99.90;;;;;;5035878;28;20049;-72
2022/08/29 12:42:24;;;;;;;9.50;2.60;;;20.40;99.90;;;;;;5038599;28;20543;-72
2022/08/29 12:45:07;;;;;;;8.35;2.15;;;20.40;99.90;;;;;;5001814;28;20048;-72
2022/08/29 12:47:38;;;;;;;7.95;2.63;;;20.50;99.90;;;;;;4982957;28;20050;-71
2022/08/29 12:50:13;;;;;;;7.32;2.53;;;20.50;99.90;;;;;;4995666;28;20450;-72
2022/08/29 12:52:38;;;;;;;7.97;1.98;;;20.40;99.90;;;;;;4991720;28;20544;-71
2022/08/29 12:55:35;;;;;;;5.22;1.83;;;20.40;99.90;;;;;;4996006;28;20065;-72
2022/08/29 12:58:01;;;;;;;9.48;2.63;;;20.50;99.90;;;;;;4981470;28;20125;-71
2022/08/29 13:00:30;;;;;;;8.90;2.17;;;20.50;99.90;;;;;;5018948;28;20572;-71
2022/08/29 13:03:19;;;;;;;11.38;2.47;;;20.60;99.90;;;;;;5015304;28;20045;-71
2022/08/29 13:05:45;;;;;;;3.25;1.70;;;20.50;99.90;;;;;;5002672;28;20055;-71
2022/08/29 13:08:26;;;;;;;5.28;2.17;;;20.50;99.90;;;;;;4998833;28;20041;-72
2022/08/29 13:10:56;;;;;;;;;;;20.60;99.90;;;;;;5000384;28;20049;-71